createdAt,value
2022-10-28T00:00:24.855Z,101754.38
2022-10-28T00:04:26.327Z,101738.91
2022-10-28T00:08:28.507Z,101744.50
2022-10-28T00:12:29.943Z,101750.31
2022-10-28T00:16:33.696Z,101754.25
2022-10-28T00:20:35.070Z,101754.28
2022-10-28T00:24:36.482Z,101748.91
2022-10-28T00:28:49.248Z,101751.97
2022-10-28T00:32:50.722Z,101748.31
2022-10-28T00:36:52.310Z,101736.78
2022-10-28T00:40:53.634Z,101745.50
2022-10-28T00:44:58.836Z,101749.00
2022-10-28T00:49:05.450Z,101744.81
2022-10-28T00:53:20.665Z,101736.50
2022-10-28T00:57:28.612Z,101725.94
2022-10-28T01:01:30.205Z,101728.81
2022-10-28T01:05:35.707Z,101726.91
2022-10-28T01:09:39.377Z,101717.22
2022-10-28T01:14:06.146Z,101732.22
2022-10-28T01:18:32.173Z,101725.38
2022-10-28T01:22:42.358Z,101732.53
2022-10-28T01:27:04.892Z,101731.13
2022-10-28T01:31:30.622Z,101725.94
2022-10-28T01:35:52.439Z,101719.91
2022-10-28T01:40:08.155Z,101708.59
2022-10-28T01:44:27.302Z,101702.38
2022-10-28T01:48:39.873Z,101705.97
2022-10-28T01:52:43.537Z,101700.81
2022-10-28T01:56:47.027Z,101692.00
2022-10-28T02:00:49.240Z,101702.25
2022-10-28T02:04:50.676Z,101701.59
2022-10-28T02:09:02.635Z,101691.19
2022-10-28T02:13:07.704Z,101691.06
2022-10-28T02:17:31.168Z,101691.84
2022-10-28T02:21:37.210Z,101686.69
2022-10-28T02:25:48.538Z,101702.31
2022-10-28T02:29:58.994Z,101702.31
2022-10-28T02:34:09.940Z,101705.72
2022-10-28T02:38:15.788Z,101697.28
2022-10-28T02:42:31.149Z,101706.91
2022-10-28T02:46:34.923Z,101700.59
2022-10-28T02:50:40.280Z,101687.84
2022-10-28T02:54:55.725Z,101679.53
2022-10-28T02:58:57.317Z,101686.75
2022-10-28T03:02:58.748Z,101689.28
2022-10-28T03:07:00.159Z,101696.00
2022-10-28T03:11:01.573Z,101692.63
2022-10-28T03:15:03.754Z,101693.53
2022-10-28T03:19:05.275Z,101690.53
2022-10-28T03:23:06.717Z,101690.97
2022-10-28T03:27:08.721Z,101684.50
2022-10-28T03:31:10.112Z,101684.03
2022-10-28T03:35:11.565Z,101683.22
2022-10-28T03:39:12.999Z,101692.84
2022-10-28T03:43:14.723Z,101689.34
2022-10-28T03:47:16.086Z,101693.91
2022-10-28T03:51:17.722Z,101697.75
2022-10-28T03:55:19.172Z,101684.53
2022-10-28T03:59:20.622Z,101680.22
2022-10-28T04:03:23.976Z,101673.75
2022-10-28T04:07:25.419Z,101679.41
2022-10-28T04:11:26.872Z,101677.22
2022-10-28T04:15:28.492Z,101675.94
2022-10-28T04:19:29.825Z,101682.69
2022-10-28T04:23:31.210Z,101689.66
2022-10-28T04:27:32.611Z,101693.56
2022-10-28T04:31:34.474Z,101675.72
2022-10-28T04:35:39.282Z,101676.41
2022-10-28T04:39:40.781Z,101663.81
2022-10-28T04:43:42.537Z,101662.97
2022-10-28T04:47:44.390Z,101666.47
2022-10-28T04:55:48.675Z,101670.28
2022-10-28T04:59:50.014Z,101660.91
2022-10-28T05:03:51.364Z,101655.81
2022-10-28T05:07:53.147Z,101667.59
2022-10-28T05:11:54.696Z,101660.19
2022-10-28T05:15:56.091Z,101666.94
2022-10-28T05:19:57.488Z,101685.59
2022-10-28T05:23:58.968Z,101676.09
2022-10-28T05:28:00.923Z,101664.72
2022-10-28T05:32:02.350Z,101666.59
2022-10-28T05:36:04.084Z,101660.00
2022-10-28T05:40:06.073Z,101656.84
2022-10-28T05:44:07.626Z,101650.00
2022-10-28T05:48:09.706Z,101655.69
2022-10-28T05:52:11.066Z,101657.06
2022-10-28T05:56:12.499Z,101649.78
2022-10-28T06:00:14.864Z,101664.50
2022-10-28T06:04:16.311Z,101662.06
2022-10-28T06:08:18.142Z,101658.13
2022-10-28T06:12:18.027Z,101656.97
2022-10-28T06:16:19.587Z,101659.06
2022-10-28T06:20:20.950Z,101663.69
2022-10-28T06:24:22.414Z,101658.13
2022-10-28T06:28:24.494Z,101660.78
2022-10-28T06:32:25.898Z,101661.72
2022-10-28T06:36:28.056Z,101652.06
2022-10-28T06:40:29.575Z,101653.56
2022-10-28T06:44:30.954Z,101655.81
2022-10-28T06:48:33.913Z,101650.53
2022-10-28T06:52:35.329Z,101658.25
2022-10-28T06:56:36.761Z,101662.16
2022-10-28T07:00:38.130Z,101667.50
2022-10-28T07:04:39.492Z,101658.97
2022-10-28T07:08:40.923Z,101667.06
2022-10-28T07:12:42.306Z,101673.44
2022-10-28T07:16:43.699Z,101663.75
2022-10-28T07:20:45.158Z,101671.34
2022-10-28T07:24:46.577Z,101658.59
2022-10-28T07:28:47.998Z,101665.72
2022-10-28T07:32:49.442Z,101657.84
2022-10-28T07:36:52.488Z,101651.47
2022-10-28T07:40:53.905Z,101643.81
2022-10-28T07:44:55.301Z,101633.25
2022-10-28T07:48:56.737Z,101638.81
2022-10-28T07:52:58.173Z,101626.94
2022-10-28T07:56:59.631Z,101619.38
2022-10-28T08:01:07.066Z,101630.53
2022-10-28T08:05:08.734Z,101640.94
2022-10-28T08:09:10.261Z,101638.81
2022-10-28T08:13:12.615Z,101631.69
2022-10-28T08:17:14.132Z,101645.78
2022-10-28T08:21:16.136Z,101656.03
2022-10-28T08:25:17.506Z,101655.09
2022-10-28T08:29:18.928Z,101645.31
2022-10-28T08:33:20.317Z,101645.66
2022-10-28T08:37:21.777Z,101632.88
2022-10-28T08:41:46.595Z,101633.97
2022-10-28T08:45:57.015Z,101627.06
2022-10-28T08:50:10.288Z,101615.28
2022-10-28T08:54:37.170Z,101610.22
2022-10-28T08:58:39.149Z,101607.91
2022-10-28T09:03:07.821Z,101621.31
2022-10-28T09:07:21.446Z,101618.81
2022-10-28T09:11:27.355Z,101611.72
2022-10-28T09:15:34.918Z,101612.19
2022-10-28T09:19:47.749Z,101605.28
2022-10-28T09:24:00.872Z,101599.19
2022-10-28T09:28:06.461Z,101613.88
2022-10-28T09:32:19.714Z,101609.47
2022-10-28T09:36:31.939Z,101609.94
2022-10-28T09:40:36.589Z,101610.84
2022-10-28T09:44:55.961Z,101605.19
2022-10-28T09:49:02.008Z,101598.44
2022-10-28T09:53:25.118Z,101596.75
2022-10-28T09:57:30.772Z,101595.81
2022-10-28T10:01:35.004Z,101590.56
2022-10-28T10:05:51.014Z,101596.16
2022-10-28T10:09:52.695Z,101593.06
2022-10-28T10:13:57.129Z,101592.31
2022-10-28T10:18:02.130Z,101583.28
2022-10-28T10:22:03.575Z,101582.44
2022-10-28T10:26:11.998Z,101581.78
2022-10-28T10:30:20.949Z,101582.53
2022-10-28T10:34:25.367Z,101583.47
2022-10-28T10:38:28.123Z,101568.09
2022-10-28T10:42:29.557Z,101564.41
2022-10-28T10:46:34.160Z,101556.28
2022-10-28T10:50:37.824Z,101555.88
2022-10-28T10:54:39.311Z,101545.09
2022-10-28T10:58:49.766Z,101540.56
2022-10-28T11:02:55.026Z,101533.16
2022-10-28T11:06:58.128Z,101527.31
2022-10-28T11:11:04.847Z,101524.19
2022-10-28T11:15:22.856Z,101519.41
2022-10-28T11:19:29.935Z,101526.78
2022-10-28T11:23:37.047Z,101516.53
2022-10-28T11:27:38.447Z,101519.28
2022-10-28T11:32:04.731Z,101512.44
2022-10-28T11:36:09.114Z,101522.91
2022-10-28T11:40:39.730Z,101513.59
2022-10-28T11:44:56.731Z,101505.91
2022-10-28T11:49:27.138Z,101499.69
2022-10-28T11:53:36.174Z,101497.53
2022-10-28T11:58:22.711Z,101494.88
2022-10-28T12:02:36.612Z,101497.00
2022-10-28T12:06:49.080Z,101494.56
2022-10-28T12:11:03.230Z,101493.44
2022-10-28T12:15:20.492Z,101481.38
2022-10-28T12:19:33.620Z,101485.22
2022-10-28T12:23:37.950Z,101495.97
2022-10-28T12:27:44.304Z,101487.16
2022-10-28T12:31:50.308Z,101493.97
2022-10-28T12:35:55.546Z,101494.44
2022-10-28T12:40:04.853Z,101485.59
2022-10-28T12:44:13.857Z,101482.44
2022-10-28T12:48:32.133Z,101487.91
2022-10-28T12:52:43.618Z,101480.94
2022-10-28T12:56:52.930Z,101465.47
2022-10-28T13:01:00.274Z,101461.03
2022-10-28T13:05:04.422Z,101461.22
2022-10-28T13:09:24.265Z,101465.44
2022-10-28T13:13:47.799Z,101464.16
2022-10-28T13:18:07.908Z,101462.47
2022-10-28T13:22:16.991Z,101457.03
2022-10-28T13:26:26.977Z,101451.91
2022-10-28T13:30:31.956Z,101442.09
2022-10-28T13:34:37.594Z,101437.69
2022-10-28T13:38:40.475Z,101439.72
2022-10-28T13:42:47.220Z,101442.38
2022-10-28T13:47:05.138Z,101438.00
2022-10-28T13:51:09.357Z,101432.25
2022-10-28T13:55:13.709Z,101437.78
2022-10-28T13:59:15.054Z,101434.44
2022-10-28T14:03:19.698Z,101431.59
2022-10-28T14:07:26.644Z,101429.03
2022-10-28T14:11:30.293Z,101435.41
2022-10-28T14:15:38.378Z,101430.06
2022-10-28T14:19:40.053Z,101429.75
2022-10-28T14:23:44.460Z,101424.41
2022-10-28T14:27:45.894Z,101422.03
2022-10-28T14:31:47.424Z,101424.72
2022-10-28T14:35:58.135Z,101423.66
2022-10-28T14:40:34.192Z,101421.28
2022-10-28T14:44:50.589Z,101422.09
2022-10-28T14:48:57.353Z,101421.72
2022-10-28T14:53:02.002Z,101421.78
2022-10-28T14:57:05.487Z,101410.88
2022-10-28T15:01:23.203Z,101413.31
2022-10-28T15:05:30.562Z,101412.97
2022-10-28T15:09:34.829Z,101400.91
2022-10-28T15:13:36.268Z,101401.38
2022-10-28T15:17:42.393Z,101389.41
2022-10-28T15:21:43.781Z,101391.47
2022-10-28T15:25:45.247Z,101392.31
2022-10-28T15:29:48.757Z,101389.00
2022-10-28T15:33:50.195Z,101383.69
2022-10-28T15:37:51.743Z,101388.56
2022-10-28T15:41:54.775Z,101386.19
2022-10-28T15:46:10.837Z,101386.25
2022-10-28T15:50:15.223Z,101390.28
2022-10-28T15:54:19.886Z,101392.09
2022-10-28T15:58:30.881Z,101388.09
2022-10-28T16:02:42.741Z,101388.97
2022-10-28T16:06:45.243Z,101387.50
2022-10-28T16:10:55.635Z,101381.84
2022-10-28T16:15:04.659Z,101390.69
2022-10-28T16:19:10.417Z,101389.00
2022-10-28T16:23:21.094Z,101379.41
2022-10-28T16:27:31.771Z,101381.50
2022-10-28T16:31:34.150Z,101384.72
2022-10-28T16:35:35.595Z,101382.31
2022-10-28T16:39:36.935Z,101385.91
2022-10-28T16:43:38.315Z,101391.97
2022-10-28T16:47:39.814Z,101387.56
2022-10-28T16:51:41.163Z,101379.13
2022-10-28T16:55:42.705Z,101387.97
2022-10-28T16:59:44.316Z,101376.75
2022-10-28T17:03:45.664Z,101388.75
2022-10-28T17:07:47.296Z,101384.75
2022-10-28T17:11:48.627Z,101372.72
2022-10-28T17:15:53.533Z,101379.53
2022-10-28T17:19:55.177Z,101385.91
2022-10-28T17:23:56.582Z,101385.84
2022-10-28T17:27:58.171Z,101392.66
2022-10-28T17:31:59.734Z,101397.81
2022-10-28T17:36:05.996Z,101402.31
2022-10-28T17:40:08.304Z,101399.53
2022-10-28T17:44:09.670Z,101388.25
2022-10-28T17:48:11.200Z,101384.63
2022-10-28T17:52:13.252Z,101378.63
2022-10-28T17:56:14.711Z,101391.03
2022-10-28T18:00:16.309Z,101393.06
2022-10-28T18:04:17.749Z,101391.34
2022-10-28T18:08:20.705Z,101392.84
2022-10-28T18:12:22.079Z,101392.84
2022-10-28T18:16:27.940Z,101392.09
2022-10-28T18:20:29.322Z,101396.94
2022-10-28T18:24:30.742Z,101390.84
2022-10-28T18:28:34.016Z,101392.84
2022-10-28T18:32:35.367Z,101388.31
2022-10-28T18:36:37.232Z,101381.19
2022-10-28T18:40:46.653Z,101381.94
2022-10-28T18:44:47.984Z,101389.09
2022-10-28T18:48:49.790Z,101392.69
2022-10-28T18:52:51.183Z,101388.72
2022-10-28T18:56:56.552Z,101385.41
2022-10-28T19:01:06.486Z,101390.22
2022-10-28T19:05:08.064Z,101385.84
2022-10-28T19:09:09.501Z,101386.63
2022-10-28T19:13:10.880Z,101384.19
2022-10-28T19:17:12.415Z,101387.75
2022-10-28T19:21:15.917Z,101383.53
2022-10-28T19:25:17.312Z,101386.53
2022-10-28T19:29:19.810Z,101389.72
2022-10-28T19:33:21.232Z,101389.25
2022-10-28T19:37:23.168Z,101393.25
2022-10-28T19:41:29.859Z,101394.78
2022-10-28T19:45:31.210Z,101400.41
2022-10-28T19:49:37.240Z,101396.28
2022-10-28T19:53:40.812Z,101401.19
2022-10-28T19:57:42.178Z,101400.81
2022-10-28T20:01:43.636Z,101409.66
2022-10-28T20:05:45.115Z,101418.16
2022-10-28T20:09:46.610Z,101422.34
2022-10-28T20:13:52.365Z,101418.69
2022-10-28T20:17:53.802Z,101416.00
2022-10-28T20:21:55.228Z,101427.59
2022-10-28T20:25:56.696Z,101426.13
2022-10-28T20:29:59.688Z,101434.03
2022-10-28T20:34:03.857Z,101421.00
2022-10-28T20:38:05.318Z,101424.59
2022-10-28T20:42:06.697Z,101430.50
2022-10-28T20:46:09.134Z,101425.59
2022-10-28T20:50:10.500Z,101426.97
2022-10-28T20:54:12.034Z,101421.88
2022-10-28T20:58:13.653Z,101430.31
2022-10-28T21:02:15.224Z,101435.31
2022-10-28T21:06:17.251Z,101433.00
2022-10-28T21:10:19.078Z,101435.44
2022-10-28T21:14:21.553Z,101442.13
2022-10-28T21:18:22.990Z,101444.03
2022-10-28T21:22:24.489Z,101442.00
2022-10-28T21:26:27.056Z,101439.19
2022-10-28T21:30:28.819Z,101443.94
2022-10-28T21:34:30.219Z,101449.31
2022-10-28T21:38:31.928Z,101435.03
2022-10-28T21:42:33.391Z,101434.78
2022-10-28T21:46:34.784Z,101435.25
2022-10-28T21:50:36.142Z,101449.31
2022-10-28T21:54:37.521Z,101443.78
2022-10-28T21:58:39.888Z,101434.19
2022-10-28T22:02:41.389Z,101433.75
2022-10-28T22:06:43.028Z,101447.03
2022-10-28T22:10:44.530Z,101447.81
2022-10-28T22:14:45.941Z,101450.53
2022-10-28T22:18:47.453Z,101461.50
2022-10-28T22:22:48.849Z,101452.81
2022-10-28T22:26:50.335Z,101456.34
2022-10-28T22:30:51.735Z,101468.13
2022-10-28T22:34:53.115Z,101463.25
2022-10-28T22:38:55.197Z,101470.44
2022-10-28T22:42:56.572Z,101466.59
2022-10-28T22:46:58.037Z,101467.44
2022-10-28T22:51:00.032Z,101464.28
2022-10-28T22:55:01.429Z,101470.75
2022-10-28T22:59:02.860Z,101477.84
2022-10-28T23:03:04.392Z,101480.97
2022-10-28T23:07:05.770Z,101498.84
2022-10-28T23:11:08.195Z,101510.88
2022-10-28T23:15:09.566Z,101506.16
2022-10-28T23:19:10.962Z,101507.81
2022-10-28T23:23:12.387Z,101504.06
2022-10-28T23:27:13.803Z,101503.28
2022-10-28T23:31:15.465Z,101499.91
2022-10-28T23:35:17.150Z,101502.69
2022-10-28T23:39:18.556Z,101508.38
2022-10-28T23:43:19.937Z,101504.00
2022-10-28T23:47:21.326Z,101502.84
2022-10-28T23:51:22.719Z,101499.78
2022-10-28T23:55:24.101Z,101491.47
2022-10-28T23:59:25.510Z,101505.84
